Time;durP1;ratioP1;P1;durP2;ratioP2;P2;SDS_P1;SDS_P2;PMS_P1;PMS_P2;Temp;Humidity;BMP_temperature;BMP_pressure;BME280_temperature;BME280_humidity;BME280_pressure;Samples;Min_cycle;Max_cycle;Signal;HPM_P1;HPM_P2
2022/11/23 00:01:15;;;;;;;;;;;;;;;38.21;nan;101641.78;5070676;28;19931;-55
2022/11/23 00:03:41;;;;;;;;;;;;;;;38.96;nan;101634.63;5067392;28;19920;-56
2022/11/23 00:06:08;;;;;;;;;;;;;;;38.72;nan;101638.81;5068791;28;19962;-57
2022/11/23 00:08:34;;;;;;;;;;;;;;;37.97;nan;101632.47;5061490;28;19925;-56
2022/11/23 00:11:00;;;;;;;;;;;;;;;39.01;nan;101642.66;5063890;28;20389;-56
2022/11/23 00:13:27;;;;;;;;;;;;;;;39.51;nan;101624.47;5056879;28;19931;-56
2022/11/23 00:15:53;;;;;;;;;;;;;;;39.59;nan;101625.94;5069238;28;19931;-56
2022/11/23 00:18:19;;;;;;;;;;;;;;;39.47;nan;101623.75;5061725;28;19916;-57
2022/11/23 00:20:45;;;;;;;;;;;;;;;40.05;nan;101624.78;5067437;28;19928;-56
2022/11/23 00:23:12;;;;;;;;;;;;;;;39.97;nan;101628.25;5066028;28;19921;-56
2022/11/23 00:25:38;;;;;;;;;;;;;;;39.82;nan;101628.56;5064412;28;19924;-56
2022/11/23 00:28:04;;;;;;;;;;;;;;;39.82;nan;101617.19;5066723;28;19929;-57
2022/11/23 00:30:30;;;;;;;;;;;;;;;39.45;nan;101626.22;5068640;28;19948;-56
2022/11/23 00:32:57;;;;;;;;;;;;;;;39.36;nan;101629.72;5065208;28;19974;-57
2022/11/23 00:35:23;;;;;;;;;;;;;;;39.23;nan;101626.75;5060274;28;20034;-57
2022/11/23 00:37:49;;;;;;;;;;;;;;;39.13;nan;101624.13;5065253;28;19924;-57
2022/11/23 00:40:16;;;;;;;;;;;;;;;39.04;nan;101630.41;5059814;28;19920;-57
2022/11/23 00:42:42;;;;;;;;;;;;;;;38.81;nan;101624.81;5068647;28;19921;-57
2022/11/23 00:45:08;;;;;;;;;;;;;;;38.58;nan;101625.66;5072364;28;20390;-58
2022/11/23 00:47:35;;;;;;;;;;;;;;;38.39;nan;101625.22;5063272;28;20484;-57
2022/11/23 00:50:03;;;;;;;;;;;;;;;38.19;nan;101615.06;5098632;27;19921;-57
2022/11/23 00:52:30;;;;;;;;;;;;;;;38.13;nan;101623.25;5092241;27;20066;-57
2022/11/23 00:54:56;;;;;;;;;;;;;;;37.98;nan;101621.91;5059388;28;19927;-58
2022/11/23 00:57:22;;;;;;;;;;;;;;;37.79;nan;101621.41;5066352;28;19953;-57
2022/11/23 00:59:49;;;;;;;;;;;;;;;37.64;nan;101620.00;5066205;28;20031;-57
2022/11/23 01:02:15;;;;;;;;;;;;;;;37.51;nan;101628.31;5067599;28;19954;-57
2022/11/23 01:04:41;;;;;;;;;;;;;;;37.41;nan;101623.63;5063318;28;20291;-57
2022/11/23 01:07:07;;;;;;;;;;;;;;;37.23;nan;101628.72;5069619;28;19921;-57
2022/11/23 01:09:33;;;;;;;;;;;;;;;36.99;nan;101624.22;5065584;28;19921;-57
2022/11/23 01:12:00;;;;;;;;;;;;;;;36.92;nan;101636.44;5089653;27;19930;-57
2022/11/23 01:14:26;;;;;;;;;;;;;;;36.93;nan;101632.38;5055175;28;19982;-57
2022/11/23 01:16:52;;;;;;;;;;;;;;;36.88;nan;101641.34;5056207;28;19921;-57
2022/11/23 01:19:19;;;;;;;;;;;;;;;36.82;nan;101638.19;5055065;28;19924;-57
2022/11/23 01:21:50;;;;;;;;;;;;;;;36.77;nan;101641.44;5056227;28;19974;-57
2022/11/23 01:24:21;;;;;;;;;;;;;;;36.64;nan;101646.06;5060459;28;19920;-57
2022/11/23 01:26:51;;;;;;;;;;;;;;;36.50;nan;101643.41;5096905;28;19955;-57
2022/11/23 01:29:19;;;;;;;;;;;;;;;36.38;nan;101646.75;5061409;28;19930;-57
2022/11/23 01:31:45;;;;;;;;;;;;;;;36.31;nan;101648.44;5077524;28;19971;-57
2022/11/23 01:34:16;;;;;;;;;;;;;;;36.20;nan;101642.03;5058114;28;19920;-56
2022/11/23 01:36:43;;;;;;;;;;;;;;;36.14;nan;101649.38;5065402;28;19971;-57
2022/11/23 01:39:11;;;;;;;;;;;;;;;36.11;nan;101650.22;5065167;28;19939;-57
2022/11/23 01:41:40;;;;;;;;;;;;;;;36.03;nan;101654.34;5060558;28;19929;-57
2022/11/23 01:44:25;;;;;;;;;;;;;;;35.95;nan;101649.97;5096867;28;19917;-57
2022/11/23 01:46:54;;;;;;;;;;;;;;;35.99;nan;101647.91;5064418;28;19916;-57
2022/11/23 01:49:22;;;;;;;;;;;;;;;35.98;nan;101640.63;5056588;28;19925;-57
2022/11/23 01:51:49;;;;;;;;;;;;;;;35.84;nan;101658.53;5057041;28;19925;-57
2022/11/23 01:54:19;;;;;;;;;;;;;;;35.84;nan;101649.25;5072594;28;19947;-57
2022/11/23 01:56:50;;;;;;;;;;;;;;;35.72;nan;101651.31;5057254;28;19924;-57
2022/11/23 01:59:19;;;;;;;;;;;;;;;35.68;nan;101649.75;5058537;28;20043;-57
2022/11/23 02:01:45;;;;;;;;;;;;;;;35.62;nan;101651.41;5055559;28;19932;-58
2022/11/23 02:04:15;;;;;;;;;;;;;;;35.55;nan;101655.09;5058325;28;20310;-57
2022/11/23 02:06:45;;;;;;;;;;;;;;;35.46;nan;101657.56;5077509;28;19916;-57
2022/11/23 02:09:13;;;;;;;;;;;;;;;35.46;nan;101660.41;5060585;28;19920;-57
2022/11/23 02:11:40;;;;;;;;;;;;;;;35.07;nan;101667.03;5088113;28;19920;-58
2022/11/23 02:14:07;;;;;;;;;;;;;;;35.05;nan;101666.66;5057547;28;19923;-57
2022/11/23 02:16:34;;;;;;;;;;;;;;;35.10;nan;101671.88;5067554;28;19920;-57
2022/11/23 02:19:00;;;;;;;;;;;;;;;35.15;nan;101670.63;5068373;28;19943;-57
2022/11/23 02:21:27;;;;;;;;;;;;;;;35.17;nan;101675.88;5062650;28;20363;-58
2022/11/23 02:23:59;;;;;;;;;;;;;;;35.00;nan;101674.72;5059721;28;20382;-57
2022/11/23 02:26:27;;;;;;;;;;;;;;;34.75;nan;101677.63;5067167;28;19920;-57
2022/11/23 02:28:59;;;;;;;;;;;;;;;34.77;nan;101680.84;5072727;28;19943;-57
2022/11/23 02:31:28;;;;;;;;;;;;;;;34.82;nan;101683.22;5062141;28;20279;-57
2022/11/23 02:33:54;;;;;;;;;;;;;;;34.59;nan;101685.72;5070360;28;20367;-57
2022/11/23 02:36:41;;;;;;;;;;;;;;;34.49;nan;101687.38;5060748;28;19931;-57
2022/11/23 02:39:07;;;;;;;;;;;;;;;34.48;nan;101691.41;5088043;28;20390;-57
2022/11/23 02:41:44;;;;;;;;;;;;;;;34.51;nan;101691.41;5069595;28;19924;-57
2022/11/23 02:44:16;;;;;;;;;;;;;;;34.48;nan;101695.03;5068806;28;19921;-57
2022/11/23 02:46:43;;;;;;;;;;;;;;;34.48;nan;101697.88;5074647;28;20011;-57
2022/11/23 02:49:09;;;;;;;;;;;;;;;34.53;nan;101699.47;5072875;28;19927;-57
2022/11/23 02:51:35;;;;;;;;;;;;;;;34.40;nan;101701.88;5069524;28;19955;-57
2022/11/23 02:54:02;;;;;;;;;;;;;;;34.48;nan;101699.88;5069573;28;19977;-57
2022/11/23 02:56:28;;;;;;;;;;;;;;;34.45;nan;101707.13;5071076;28;19924;-56
2022/11/23 02:58:54;;;;;;;;;;;;;;;34.19;nan;101708.34;5070418;28;20345;-56
2022/11/23 03:01:22;;;;;;;;;;;;;;;34.21;nan;101708.72;5069841;28;20313;-57
2022/11/23 03:03:48;;;;;;;;;;;;;;;34.12;nan;101713.19;5070001;28;19916;-57
2022/11/23 03:06:14;;;;;;;;;;;;;;;33.93;nan;101718.00;5069693;28;19921;-56
2022/11/23 03:08:41;;;;;;;;;;;;;;;33.93;nan;101718.00;5070096;28;20290;-58
2022/11/23 03:11:08;;;;;;;;;;;;;;;33.56;nan;101723.09;5090301;28;19924;-58
2022/11/23 03:13:34;;;;;;;;;;;;;;;33.28;nan;101721.78;5072949;28;19916;-56
2022/11/23 03:16:00;;;;;;;;;;;;;;;33.57;nan;101721.91;5073369;28;19932;-56
2022/11/23 03:18:26;;;;;;;;;;;;;;;33.71;nan;101712.69;5107411;27;19927;-57
2022/11/23 03:20:53;;;;;;;;;;;;;;;33.61;nan;101720.72;5073312;28;19927;-57
2022/11/23 03:23:20;;;;;;;;;;;;;;;33.76;nan;101706.66;5075444;28;20054;-57
2022/11/23 03:25:53;;;;;;;;;;;;;;;33.55;nan;101715.84;5073566;28;19928;-57
2022/11/23 03:28:20;;;;;;;;;;;;;;;33.61;nan;101717.91;5073236;28;19920;-58
2022/11/23 03:30:46;;;;;;;;;;;;;;;33.56;nan;101723.91;5075079;28;19943;-57
2022/11/23 03:33:13;;;;;;;;;;;;;;;33.37;nan;101718.63;5073786;28;19935;-57
2022/11/23 03:35:40;;;;;;;;;;;;;;;33.47;nan;101714.25;5090291;28;20018;-57
2022/11/23 03:38:29;;;;;;;;;;;;;;;33.38;nan;101720.22;5069525;28;19925;-58
2022/11/23 03:40:56;;;;;;;;;;;;;;;33.24;nan;101720.97;5090173;28;19967;-58
2022/11/23 03:43:25;;;;;;;;;;;;;;;33.37;nan;101726.28;5071707;28;19920;-57
2022/11/23 03:45:51;;;;;;;;;;;;;;;33.11;nan;101730.97;5072767;28;20338;-57
2022/11/23 03:48:18;;;;;;;;;;;;;;;32.97;nan;101740.16;5073064;28;19924;-57
2022/11/23 03:50:45;;;;;;;;;;;;;;;32.57;nan;101732.63;5072574;28;19924;-57
2022/11/23 03:53:11;;;;;;;;;;;;;;;32.87;nan;101742.94;5073235;28;19925;-57
2022/11/23 03:55:38;;;;;;;;;;;;;;;32.88;nan;101734.06;5073860;28;19916;-57
2022/11/23 03:58:04;;;;;;;;;;;;;;;32.70;nan;101736.75;5072384;28;19917;-57
2022/11/23 04:00:34;;;;;;;;;;;;;;;32.78;nan;101731.16;5073031;28;19928;-57
2022/11/23 04:03:01;;;;;;;;;;;;;;;32.80;nan;101740.00;5073844;28;19924;-57
2022/11/23 04:05:45;;;;;;;;;;;;;;;33.10;nan;101734.19;5071284;28;20352;-57
2022/11/23 04:08:17;;;;;;;;;;;;;;;33.08;nan;101734.59;5074603;28;20394;-57
2022/11/23 04:10:44;;;;;;;;;;;;;;;33.07;nan;101735.78;5070082;28;19920;-57
2022/11/23 04:13:16;;;;;;;;;;;;;;;33.11;nan;101736.59;5073294;28;19920;-57
2022/11/23 04:15:42;;;;;;;;;;;;;;;32.98;nan;101740.97;5072782;28;20295;-57
2022/11/23 04:18:09;;;;;;;;;;;;;;;32.92;nan;101748.19;5072592;28;19923;-58
2022/11/23 04:20:37;;;;;;;;;;;;;;;32.72;nan;101748.44;5055286;28;19920;-58
2022/11/23 04:23:04;;;;;;;;;;;;;;;32.83;nan;101750.50;5071993;28;20428;-58
2022/11/23 04:25:30;;;;;;;;;;;;;;;32.88;nan;101753.00;5071719;28;19921;-57
2022/11/23 04:27:58;;;;;;;;;;;;;;;32.93;nan;101755.41;5072125;28;19989;-57
2022/11/23 04:30:25;;;;;;;;;;;;;;;32.83;nan;101759.78;5069718;28;19919;-56
2022/11/23 04:32:54;;;;;;;;;;;;;;;32.42;nan;101759.03;5072474;28;19942;-58
2022/11/23 04:35:21;;;;;;;;;;;;;;;32.35;nan;101757.00;5072837;28;19913;-58
2022/11/23 04:37:49;;;;;;;;;;;;;;;32.02;nan;101757.06;5072172;28;19956;-58
2022/11/23 04:40:16;;;;;;;;;;;;;;;32.23;nan;101767.69;5071814;28;20654;-58
2022/11/23 04:42:53;;;;;;;;;;;;;;;31.99;nan;101764.25;5070385;28;20409;-59
2022/11/23 04:45:19;;;;;;;;;;;;;;;31.89;nan;101762.13;5071995;28;20268;-58
2022/11/23 04:47:46;;;;;;;;;;;;;;;32.05;nan;101761.91;5072015;28;20328;-58
2022/11/23 04:50:14;;;;;;;;;;;;;;;31.72;nan;101754.28;5071961;28;19924;-59
2022/11/23 04:52:44;;;;;;;;;;;;;;;31.94;nan;101760.97;5069615;28;19939;-59
2022/11/23 04:55:16;;;;;;;;;;;;;;;32.10;nan;101748.28;5072554;28;20290;-58
2022/11/23 04:57:50;;;;;;;;;;;;;;;32.20;nan;101757.22;5070377;28;19921;-59
2022/11/23 05:00:16;;;;;;;;;;;;;;;32.30;nan;101757.31;5070858;28;20025;-58
2022/11/23 05:02:43;;;;;;;;;;;;;;;32.26;nan;101766.91;5067762;28;19928;-57
2022/11/23 05:05:18;;;;;;;;;;;;;;;32.06;nan;101766.31;5070193;28;20444;-58
2022/11/23 05:07:44;;;;;;;;;;;;;;;32.02;nan;101762.69;5085883;28;19920;-57
2022/11/23 05:10:10;;;;;;;;;;;;;;;32.11;nan;101766.78;5088829;28;20235;-57
2022/11/23 05:12:38;;;;;;;;;;;;;;;31.97;nan;101766.66;5072587;28;20349;-57
2022/11/23 05:15:05;;;;;;;;;;;;;;;31.92;nan;101758.53;5072835;28;19924;-57
2022/11/23 05:17:35;;;;;;;;;;;;;;;31.92;nan;101758.53;5072405;28;19920;-57
2022/11/23 05:20:04;;;;;;;;;;;;;;;31.94;nan;101764.59;5071653;28;19921;-57
2022/11/23 05:22:34;;;;;;;;;;;;;;;31.86;nan;101766.53;5089135;28;19924;-57
2022/11/23 05:25:00;;;;;;;;;;;;;;;31.81;nan;101757.66;5072997;28;19966;-57
2022/11/23 05:27:28;;;;;;;;;;;;;;;31.94;nan;101760.97;5088430;28;19920;-57
2022/11/23 05:29:55;;;;;;;;;;;;;;;31.92;nan;101766.97;5071673;28;19927;-57
2022/11/23 05:32:21;;;;;;;;;;;;;;;31.92;nan;101772.59;5072048;28;19924;-57
2022/11/23 05:34:48;;;;;;;;;;;;;;;31.95;nan;101783.06;5072292;28;19959;-57
2022/11/23 05:37:16;;;;;;;;;;;;;;;31.87;nan;101781.41;5072718;28;19932;-57
2022/11/23 05:39:55;;;;;;;;;;;;;;;31.74;nan;101783.66;5069624;28;19917;-57
2022/11/23 05:42:23;;;;;;;;;;;;;;;31.79;nan;101776.91;5069802;28;19920;-57
2022/11/23 05:44:51;;;;;;;;;;;;;;;31.81;nan;101780.13;5079409;28;19931;-57
2022/11/23 05:47:22;;;;;;;;;;;;;;;31.66;nan;101781.13;5080202;28;19929;-57
2022/11/23 05:49:49;;;;;;;;;;;;;;;31.71;nan;101775.97;5094155;28;19925;-56
2022/11/23 05:52:23;;;;;;;;;;;;;;;31.71;nan;101784.41;5049189;28;20457;-57
2022/11/23 05:54:52;;;;;;;;;;;;;;;31.75;nan;101778.84;5070329;28;20301;-57
2022/11/23 05:57:21;;;;;;;;;;;;;;;31.55;nan;101778.19;5074962;28;20002;-57
2022/11/23 05:59:49;;;;;;;;;;;;;;;31.51;nan;101775.34;5046867;28;20441;-57
2022/11/23 06:02:21;;;;;;;;;;;;;;;31.66;nan;101778.31;5074295;28;19976;-57
2022/11/23 06:04:52;;;;;;;;;;;;;;;31.78;nan;101780.91;5047796;28;19974;-57
2022/11/23 06:07:25;;;;;;;;;;;;;;;31.88;nan;101779.41;5072508;28;19920;-57
2022/11/23 06:10:02;;;;;;;;;;;;;;;31.55;nan;101781.78;5049359;28;20339;-57
2022/11/23 06:12:31;;;;;;;;;;;;;;;31.33;nan;101791.16;5052370;28;19925;-57
2022/11/23 06:14:58;;;;;;;;;;;;;;;31.41;nan;101787.22;5039738;28;19947;-57
2022/11/23 06:17:26;;;;;;;;;;;;;;;31.37;nan;101789.19;5037251;28;19920;-58
2022/11/23 06:19:58;;;;;;;;;;;;;;;30.97;nan;101799.03;5033690;28;19971;-58
2022/11/23 06:22:24;;;;;;;;;;;;;;;31.17;nan;101801.72;5068944;28;19924;-58
2022/11/23 06:25:03;;;;;;;;;;;;;;;31.33;nan;101793.97;5036951;28;19924;-57
2022/11/23 06:27:29;;;;;;;;;;;;;;;31.33;nan;101799.59;5054355;28;19935;-58
2022/11/23 06:29:56;;;;;;;;;;;;;;;31.30;nan;101796.72;5033476;28;20375;-57
2022/11/23 06:32:25;;;;;;;;;;;;;;;31.37;nan;101805.25;5068937;28;20326;-58
2022/11/23 06:34:52;;;;;;;;;;;;;;;31.43;nan;101800.94;5036358;28;20394;-58
2022/11/23 06:37:18;;;;;;;;;;;;;;;31.41;nan;101806.09;5052900;28;20448;-56
2022/11/23 06:39:50;;;;;;;;;;;;;;;31.50;nan;101790.56;5035404;28;19921;-57
2022/11/23 06:42:17;;;;;;;;;;;;;;;31.47;nan;101782.91;5033122;28;19921;-56
2022/11/23 06:44:43;;;;;;;;;;;;;;;31.53;nan;101784.19;5037364;28;20387;-57
2022/11/23 06:47:09;;;;;;;;;;;;;;;31.03;nan;101790.28;5072571;28;19955;-57
2022/11/23 06:49:36;;;;;;;;;;;;;;;30.75;nan;101794.28;5065746;28;20003;-57
2022/11/23 06:52:25;;;;;;;;;;;;;;;31.25;nan;101795.06;5055544;28;19921;-57
2022/11/23 06:54:52;;;;;;;;;;;;;;;31.64;nan;101783.53;5055002;28;20401;-57
2022/11/23 06:57:18;;;;;;;;;;;;;;;31.61;nan;101787.09;5049055;28;19917;-57
2022/11/23 06:59:46;;;;;;;;;;;;;;;31.63;nan;101784.72;5048657;28;19920;-57
2022/11/23 07:02:14;;;;;;;;;;;;;;;31.55;nan;101784.59;5044655;28;21303;-57
2022/11/23 07:04:41;;;;;;;;;;;;;;;31.40;nan;101785.63;5040984;28;19920;-57
2022/11/23 07:07:14;;;;;;;;;;;;;;;31.20;nan;101786.94;5048914;28;20397;-56
2022/11/23 07:09:47;;;;;;;;;;;;;;;31.27;nan;101782.25;5041374;28;19921;-57
2022/11/23 07:12:30;;;;;;;;;;;;;;;31.20;nan;101782.16;5088047;28;19950;-57
2022/11/23 07:14:59;;;;;;;;;;;;;;;31.13;nan;101786.84;5057658;28;20451;-57
2022/11/23 07:17:28;;;;;;;;;;;;;;;31.04;nan;101787.09;5056391;28;19920;-58
2022/11/23 07:19:54;;;;;;;;;;;;;;;30.99;nan;101784.63;5052254;28;20401;-58
2022/11/23 07:22:21;;;;;;;;;;;;;;;30.92;nan;101779.72;5046813;28;19918;-57
2022/11/23 07:24:47;;;;;;;;;;;;;;;30.86;nan;101783.22;5049534;28;20069;-57
2022/11/23 07:27:15;;;;;;;;;;;;;;;30.90;nan;101776.50;5066835;28;19921;-57
2022/11/23 07:29:42;;;;;;;;;;;;;;;30.89;nan;101782.47;5072971;28;19921;-57
2022/11/23 07:32:08;;;;;;;;;;;;;;;30.86;nan;101772.00;5056087;28;20298;-57
2022/11/23 07:34:35;;;;;;;;;;;;;;;30.64;nan;101770.84;5038427;28;20298;-58
2022/11/23 07:37:03;;;;;;;;;;;;;;;30.54;nan;101771.47;5041954;28;19920;-57
2022/11/23 07:39:32;;;;;;;;;;;;;;;30.37;nan;101765.19;5067323;28;19948;-57
2022/11/23 07:41:58;;;;;;;;;;;;;;;30.49;nan;101763.34;5071698;28;19917;-58
2022/11/23 07:44:29;;;;;;;;;;;;;;;30.62;nan;101770.41;5056215;28;20003;-58
2022/11/23 07:46:56;;;;;;;;;;;;;;;30.48;nan;101761.75;5039900;28;19931;-58
2022/11/23 07:49:22;;;;;;;;;;;;;;;30.30;nan;101765.06;5062523;28;19917;-58
2022/11/23 07:51:49;;;;;;;;;;;;;;;30.14;nan;101755.13;5056951;28;19921;-58
2022/11/23 07:54:16;;;;;;;;;;;;;;;30.25;nan;101751.34;5054904;28;19966;-58
2022/11/23 07:56:42;;;;;;;;;;;;;;;30.33;nan;101758.69;5053629;28;19916;-58
2022/11/23 07:59:08;;;;;;;;;;;;;;;30.25;nan;101751.34;5067456;28;19921;-58
2022/11/23 08:01:35;;;;;;;;;;;;;;;29.81;nan;101750.13;5069162;28;20294;-58
2022/11/23 08:04:01;;;;;;;;;;;;;;;29.65;nan;101748.22;5064089;28;19938;-58
2022/11/23 08:06:28;;;;;;;;;;;;;;;29.77;nan;101742.44;5061246;28;20398;-58
2022/11/23 08:08:54;;;;;;;;;;;;;;;29.84;nan;101733.38;5054573;28;19920;-58
2022/11/23 08:11:21;;;;;;;;;;;;;;;29.72;nan;101739.94;5070951;28;20306;-58
2022/11/23 08:13:47;;;;;;;;;;;;;;;29.81;nan;101736.09;5061989;28;20325;-58
2022/11/23 08:16:13;;;;;;;;;;;;;;;29.81;nan;101747.31;5063061;28;20398;-58
2022/11/23 08:18:39;;;;;;;;;;;;;;;29.79;nan;101744.84;5069204;28;19974;-58
2022/11/23 08:21:06;;;;;;;;;;;;;;;29.68;nan;101738.25;5057421;28;20383;-58
2022/11/23 08:23:32;;;;;;;;;;;;;;;29.71;nan;101740.31;5069144;28;19917;-58
2022/11/23 08:25:58;;;;;;;;;;;;;;;29.37;nan;101750.41;5063398;28;19927;-58
2022/11/23 08:28:24;;;;;;;;;;;;;;;29.58;nan;101750.84;5061204;28;19952;-58
2022/11/23 08:30:50;;;;;;;;;;;;;;;29.64;nan;101755.00;5070039;28;19975;-58
2022/11/23 08:33:17;;;;;;;;;;;;;;;29.72;nan;101741.94;5056966;28;19912;-58
2022/11/23 08:35:43;;;;;;;;;;;;;;;29.77;nan;101750.03;5067309;28;20424;-58
2022/11/23 08:38:10;;;;;;;;;;;;;;;29.67;nan;101747.84;5064523;28;19964;-58
2022/11/23 08:40:37;;;;;;;;;;;;;;;29.47;nan;101745.06;5059926;28;19928;-58
2022/11/23 08:43:03;;;;;;;;;;;;;;;29.48;nan;101745.88;5070592;28;19939;-58
2022/11/23 08:45:30;;;;;;;;;;;;;;;29.37;nan;101744.78;5058988;28;19927;-58
2022/11/23 08:48:00;;;;;;;;;;;;;;;29.42;nan;101736.91;5065182;28;19917;-58
2022/11/23 08:50:28;;;;;;;;;;;;;;;29.42;nan;101736.09;5067810;28;19989;-58
2022/11/23 08:52:55;;;;;;;;;;;;;;;29.33;nan;101736.31;5090568;28;19927;-58
2022/11/23 08:55:22;;;;;;;;;;;;;;;29.34;nan;101737.94;5077695;28;19927;-58
2022/11/23 08:57:49;;;;;;;;;;;;;;;29.40;nan;101738.44;5086413;28;19912;-58
2022/11/23 09:00:15;;;;;;;;;;;;;;;29.48;nan;101748.66;5083702;28;20004;-58
2022/11/23 09:02:41;;;;;;;;;;;;;;;29.19;nan;101750.81;5078778;28;19970;-58
2022/11/23 09:05:08;;;;;;;;;;;;;;;29.36;nan;101765.56;5090308;28;20003;-58
2022/11/23 09:07:34;;;;;;;;;;;;;;;29.26;nan;101757.75;5078400;28;20346;-58
2022/11/23 09:10:00;;;;;;;;;;;;;;;29.26;nan;101755.75;5084220;28;20391;-58
2022/11/23 09:12:26;;;;;;;;;;;;;;;29.33;nan;101760.72;5086349;28;20353;-58
2022/11/23 09:14:53;;;;;;;;;;;;;;;29.34;nan;101763.16;5075845;28;19920;-58
2022/11/23 09:17:19;;;;;;;;;;;;;;;29.56;nan;101758.81;5060476;28;19965;-58
2022/11/23 09:19:46;;;;;;;;;;;;;;;29.46;nan;101759.44;5086313;28;19952;-58
2022/11/23 09:22:12;;;;;;;;;;;;;;;29.14;nan;101759.53;5083786;28;19922;-57
2022/11/23 09:24:38;;;;;;;;;;;;;;;29.59;nan;101758.09;5077648;28;19927;-58
2022/11/23 09:27:04;;;;;;;;;;;;;;;29.34;nan;101763.16;5089729;28;19916;-58
2022/11/23 09:29:30;;;;;;;;;;;;;;;29.03;nan;101747.25;5078223;28;19924;-58
2022/11/23 09:31:56;;;;;;;;;;;;;;;29.09;nan;101754.22;5084406;28;19971;-58
2022/11/23 09:34:23;;;;;;;;;;;;;;;28.89;nan;101746.94;5085354;28;19916;-58
2022/11/23 09:36:49;;;;;;;;;;;;;;;29.59;nan;101752.47;5077091;28;20007;-58
2022/11/23 09:39:15;;;;;;;;;;;;;;;30.04;nan;101748.97;5089762;28;20365;-58
2022/11/23 09:41:56;;;;;;;;;;;;;;;30.24;nan;101748.91;5079628;28;19973;-58
2022/11/23 09:44:32;;;;;;;;;;;;;;;30.08;nan;101740.63;5080425;28;19925;-58
2022/11/23 09:47:10;;;;;;;;;;;;;;;29.95;nan;101745.56;5089722;28;19927;-58
2022/11/23 09:49:52;;;;;;;;;;;;;;;29.86;nan;101741.41;5078926;28;19924;-58
2022/11/23 09:52:20;;;;;;;;;;;;;;;29.62;nan;101750.91;5083877;28;20352;-58
2022/11/23 09:54:49;;;;;;;;;;;;;;;29.48;nan;101745.88;5076908;28;19924;-58
2022/11/23 09:57:18;;;;;;;;;;;;;;;29.63;nan;101744.97;5078045;28;19967;-58
2022/11/23 09:59:49;;;;;;;;;;;;;;;29.58;nan;101739.66;5079884;28;19920;-58
2022/11/23 10:02:23;;;;;;;;;;;;;;;29.46;nan;101734.22;5081182;28;19920;-58
2022/11/23 10:04:51;;;;;;;;;;;;;;;29.33;nan;101738.31;5088897;28;19920;-58
2022/11/23 10:07:21;;;;;;;;;;;;;;;29.28;nan;101724.63;5076120;28;20101;-58
2022/11/23 10:09:54;;;;;;;;;;;;;;;29.26;nan;101724.16;5085348;28;19928;-58
2022/11/23 10:12:38;;;;;;;;;;;;;;;29.13;nan;101724.31;5084562;28;19928;-58
2022/11/23 10:15:23;;;;;;;;;;;;;;;28.81;nan;101717.16;5075712;28;19924;-58
2022/11/23 10:17:52;;;;;;;;;;;;;;;28.81;nan;101720.75;5085197;28;19927;-58
2022/11/23 10:20:18;;;;;;;;;;;;;;;28.85;nan;101715.25;5083114;28;20003;-58
2022/11/23 10:22:50;;;;;;;;;;;;;;;28.92;nan;101707.06;5092333;28;19920;-58
2022/11/23 10:25:21;;;;;;;;;;;;;;;28.75;nan;101701.84;5080196;28;20401;-58
2022/11/23 10:27:49;;;;;;;;;;;;;;;28.71;nan;101701.72;5086194;28;19920;-58
2022/11/23 10:30:15;;;;;;;;;;;;;;;28.68;nan;101708.06;5087883;28;20393;-57
2022/11/23 10:32:48;;;;;;;;;;;;;;;28.81;nan;101706.78;5080543;28;19920;-58
2022/11/23 10:35:22;;;;;;;;;;;;;;;28.57;nan;101699.44;5091367;28;19981;-58
2022/11/23 10:37:48;;;;;;;;;;;;;;;28.19;nan;101696.47;5082370;28;19924;-58
2022/11/23 10:40:22;;;;;;;;;;;;;;;28.23;nan;101694.56;5083244;28;19968;-58
2022/11/23 10:43:13;;;;;;;;;;;;;;;28.41;nan;101695.84;5090672;28;20367;-58
2022/11/23 10:45:39;;;;;;;;;;;;;;;28.17;nan;101693.19;5080906;28;19920;-58
2022/11/23 10:48:06;;;;;;;;;;;;;;;28.25;nan;101690.28;5085277;28;20009;-58
2022/11/23 10:50:36;;;;;;;;;;;;;;;28.46;nan;101694.75;5082950;28;19927;-58
2022/11/23 10:53:07;;;;;;;;;;;;;;;28.64;nan;101690.38;5093401;28;19924;-58
2022/11/23 10:55:46;;;;;;;;;;;;;;;28.20;nan;101693.31;5082015;28;20270;-57
2022/11/23 10:58:35;;;;;;;;;;;;;;;28.19;nan;101691.69;5083930;28;19928;-57
2022/11/23 11:01:25;;;;;;;;;;;;;;;28.31;nan;101693.59;5087194;28;19928;-58
2022/11/23 11:03:52;;;;;;;;;;;;;;;28.18;nan;101706.00;5078534;28;20419;-58
2022/11/23 11:06:23;;;;;;;;;;;;;;;28.13;nan;101695.91;5084145;28;20271;-58
2022/11/23 11:08:57;;;;;;;;;;;;;;;27.96;nan;101711.06;5092413;28;19920;-58
2022/11/23 11:11:25;;;;;;;;;;;;;;;28.03;nan;101704.84;5080049;28;20370;-58
2022/11/23 11:14:00;;;;;;;;;;;;;;;27.94;nan;101693.84;5087746;28;20006;-58
2022/11/23 11:16:36;;;;;;;;;;;;;;;27.99;nan;101690.75;5088760;28;20403;-57
2022/11/23 11:19:25;;;;;;;;;;;;;;;28.16;nan;101691.56;5078659;28;20035;-57
2022/11/23 11:21:51;;;;;;;;;;;;;;;28.14;nan;101693.94;5087828;28;19920;-57
2022/11/23 11:24:20;;;;;;;;;;;;;;;28.10;nan;101695.81;5083671;28;19916;-57
2022/11/23 11:26:51;;;;;;;;;;;;;;;28.19;nan;101696.47;5091316;28;20362;-57
2022/11/23 11:29:36;;;;;;;;;;;;;;;28.31;nan;101685.22;5078957;28;20022;-57
2022/11/23 11:32:05;;;;;;;;;;;;;;;28.34;nan;101683.66;5085191;28;20302;-57
2022/11/23 11:34:57;;;;;;;;;;;;;;;28.31;nan;101687.19;5089040;28;19927;-56
2022/11/23 11:37:33;;;;;;;;;;;;;;;28.00;nan;101695.19;5077513;28;19971;-57
2022/11/23 11:40:09;;;;;;;;;;;;;;;28.18;nan;101694.81;5086221;28;19932;-57
2022/11/23 11:42:40;;;;;;;;;;;;;;;28.13;nan;101686.72;5089416;28;19924;-57
2022/11/23 11:45:14;;;;;;;;;;;;;;;28.16;nan;101686.81;5078586;28;20374;-57
2022/11/23 11:47:45;;;;;;;;;;;;;;;28.06;nan;101680.97;5088915;28;19917;-57
2022/11/23 11:50:29;;;;;;;;;;;;;;;28.19;nan;101682.50;5082333;28;19920;-57
2022/11/23 11:52:59;;;;;;;;;;;;;;;28.19;nan;101690.88;5091761;28;19931;-57
2022/11/23 11:55:29;;;;;;;;;;;;;;;28.13;nan;101697.91;5079465;28;19916;-57
2022/11/23 11:58:01;;;;;;;;;;;;;;;28.05;nan;101693.31;5086617;28;20317;-57
2022/11/23 12:00:29;;;;;;;;;;;;;;;28.10;nan;101688.25;5088433;28;20376;-57
2022/11/23 12:03:04;;;;;;;;;;;;;;;27.99;nan;101685.19;5078244;28;20006;-57
2022/11/23 12:05:39;;;;;;;;;;;;;;;28.03;nan;101687.28;5089936;28;19924;-57
2022/11/23 12:08:15;;;;;;;;;;;;;;;28.05;nan;101679.34;5084480;28;20341;-57
2022/11/23 12:10:57;;;;;;;;;;;;;;;28.16;nan;101675.63;5078546;28;19920;-57
2022/11/23 12:13:28;;;;;;;;;;;;;;;28.04;nan;101683.31;5079090;28;19966;-58
2022/11/23 12:15:57;;;;;;;;;;;;;;;27.61;nan;101685.72;5086362;28;19920;-58
2022/11/23 12:18:38;;;;;;;;;;;;;;;27.80;nan;101689.84;5082238;28;19927;-58
2022/11/23 12:21:16;;;;;;;;;;;;;;;27.68;nan;101693.53;5084689;28;20296;-58
2022/11/23 12:23:43;;;;;;;;;;;;;;;27.97;nan;101693.13;5087877;28;19928;-57
2022/11/23 12:26:19;;;;;;;;;;;;;;;27.94;nan;101685.44;5084847;28;19919;-57
2022/11/23 12:28:48;;;;;;;;;;;;;;;27.96;nan;101690.69;5079002;28;20400;-56
2022/11/23 12:31:26;;;;;;;;;;;;;;;27.99;nan;101687.97;5090981;28;19931;-56
2022/11/23 12:33:53;;;;;;;;;;;;;;;27.71;nan;101681.66;5082620;28;19927;-56
2022/11/23 12:36:37;;;;;;;;;;;;;;;27.75;nan;101682.56;5085706;28;19920;-57
2022/11/23 12:39:16;;;;;;;;;;;;;;;27.76;nan;101689.75;5077528;28;19920;-58
2022/11/23 12:41:42;;;;;;;;;;;;;;;27.73;nan;101686.88;5087098;28;20386;-57
2022/11/23 12:44:20;;;;;;;;;;;;;;;27.91;nan;101696.53;5084473;28;19920;-58
2022/11/23 12:46:52;;;;;;;;;;;;;;;27.99;nan;101690.75;5078312;28;19923;-58
2022/11/23 12:49:31;;;;;;;;;;;;;;;27.81;nan;101692.28;5090620;28;20018;-58
2022/11/23 12:52:20;;;;;;;;;;;;;;;27.80;nan;101699.03;5082109;28;20030;-58
2022/11/23 12:54:52;;;;;;;;;;;;;;;27.96;nan;101704.66;5058874;28;19928;-58
2022/11/23 12:57:30;;;;;;;;;;;;;;;27.61;nan;101702.50;5060732;28;19920;-58
2022/11/23 13:00:03;;;;;;;;;;;;;;;26.88;nan;101705.50;5085049;28;19960;-58
2022/11/23 13:02:59;;;;;;;;;;;;;;;27.47;nan;101712.44;5086565;28;20389;-58
2022/11/23 13:05:41;;;;;;;;;;;;;;;27.74;nan;101716.44;5069130;28;20400;-57
2022/11/23 13:08:25;;;;;;;;;;;;;;;27.79;nan;101722.56;5083244;28;19936;-57
2022/11/23 13:10:55;;;;;;;;;;;;;;;27.75;nan;101718.88;5088900;28;19920;-57